createdAt,value
2023-06-10T00:00:48.730Z,17.96
2023-06-10T00:03:16.824Z,17.91
2023-06-10T00:05:44.650Z,17.83
2023-06-10T00:08:12.837Z,17.74
2023-06-10T00:10:40.581Z,17.69
2023-06-10T00:13:09.989Z,17.67
2023-06-10T00:15:37.793Z,17.63
2023-06-10T00:18:07.171Z,17.58
2023-06-10T00:20:38.853Z,17.54
2023-06-10T00:23:09.394Z,17.46
2023-06-10T00:25:37.254Z,17.43
2023-06-10T00:28:05.185Z,17.36
2023-06-10T00:30:33.082Z,17.34
2023-06-10T00:33:01.203Z,17.27
2023-06-10T00:35:30.506Z,17.26
2023-06-10T00:37:58.273Z,17.25
2023-06-10T00:40:26.109Z,17.24
2023-06-10T00:42:53.900Z,17.24
2023-06-10T00:45:23.542Z,17.21
2023-06-10T00:47:51.347Z,17.23
2023-06-10T00:50:19.416Z,17.24
2023-06-10T00:52:49.548Z,17.24
2023-06-10T00:55:19.003Z,17.21
2023-06-10T00:57:49.350Z,17.18
2023-06-10T01:00:17.879Z,17.17
2023-06-10T01:02:45.706Z,17.08
2023-06-10T01:05:13.783Z,17.08
2023-06-10T01:07:49.203Z,17.08
2023-06-10T01:10:25.865Z,16.97
2023-06-10T01:13:03.642Z,16.95
2023-06-10T01:15:32.790Z,16.93
2023-06-10T01:18:03.058Z,16.92
2023-06-10T01:20:33.595Z,16.90
2023-06-10T01:23:04.176Z,16.90
2023-06-10T01:25:34.139Z,16.98
2023-06-10T01:28:07.650Z,16.92
2023-06-10T01:30:46.751Z,16.91
2023-06-10T01:33:19.314Z,16.88
2023-06-10T01:35:48.986Z,16.88
2023-06-10T01:38:21.309Z,16.85
2023-06-10T01:40:51.445Z,16.83
2023-06-10T01:43:19.217Z,16.81
2023-06-10T01:45:47.489Z,16.82
2023-06-10T01:48:15.306Z,16.79
2023-06-10T01:50:44.950Z,16.79
2023-06-10T01:53:12.818Z,16.79
2023-06-10T01:55:42.018Z,16.78
2023-06-10T01:58:09.794Z,16.77
2023-06-10T02:00:37.547Z,16.73
2023-06-10T02:03:05.535Z,16.70
2023-06-10T02:05:33.378Z,16.68
2023-06-10T02:08:01.737Z,16.63
2023-06-10T02:10:29.574Z,16.59
2023-06-10T02:13:00.462Z,16.55
2023-06-10T02:15:28.242Z,16.52
2023-06-10T02:17:56.966Z,16.50
2023-06-10T02:20:24.809Z,16.46
2023-06-10T02:22:52.804Z,16.45
2023-06-10T02:25:20.632Z,16.39
2023-06-10T02:27:48.415Z,16.40
2023-06-10T02:30:17.707Z,16.41
2023-06-10T02:32:48.933Z,16.39
2023-06-10T02:35:18.527Z,16.35
2023-06-10T02:37:46.657Z,16.30
2023-06-10T02:40:14.540Z,16.29
2023-06-10T02:42:42.339Z,16.25
2023-06-10T02:45:10.958Z,16.23
2023-06-10T02:47:43.989Z,16.21
2023-06-10T02:50:13.529Z,16.17
2023-06-10T02:52:51.486Z,16.16
2023-06-10T02:55:19.562Z,16.16
2023-06-10T02:57:53.389Z,16.15
2023-06-10T03:00:22.621Z,16.14
2023-06-10T03:02:52.374Z,16.13
2023-06-10T03:05:25.130Z,16.10
2023-06-10T03:07:55.155Z,16.07
2023-06-10T03:10:23.690Z,16.07
2023-06-10T03:12:51.550Z,16.11
2023-06-10T03:15:21.838Z,16.13
2023-06-10T03:17:50.105Z,16.13
2023-06-10T03:20:19.337Z,16.12
2023-06-10T03:22:48.174Z,16.07
2023-06-10T03:25:15.964Z,16.05
2023-06-10T03:27:47.718Z,16.06
2023-06-10T03:30:16.197Z,16.07
2023-06-10T03:32:45.299Z,16.10
2023-06-10T03:35:16.605Z,16.12
2023-06-10T03:37:46.400Z,16.11
2023-06-10T03:40:14.327Z,16.07
2023-06-10T03:42:46.032Z,16.02
2023-06-10T03:45:16.147Z,16.00
2023-06-10T03:47:44.433Z,15.96
2023-06-10T03:50:15.223Z,15.98
2023-06-10T03:52:47.975Z,16.01
2023-06-10T03:55:18.011Z,16.06
2023-06-10T03:57:47.190Z,16.11
2023-06-10T04:00:16.416Z,16.12
2023-06-10T04:02:47.542Z,16.15
2023-06-10T04:05:23.637Z,16.16
2023-06-10T04:07:52.851Z,16.18
2023-06-10T04:10:21.461Z,16.25
2023-06-10T04:12:49.294Z,16.31
2023-06-10T04:15:17.218Z,16.38
2023-06-10T04:17:45.297Z,16.39
2023-06-10T04:20:14.469Z,16.45
2023-06-10T04:22:46.017Z,16.49
2023-06-10T04:25:15.384Z,16.53
2023-06-10T04:27:43.893Z,16.61
2023-06-10T04:30:13.524Z,16.67
2023-06-10T04:32:42.248Z,16.73
2023-06-10T04:35:16.090Z,16.76
2023-06-10T04:37:44.472Z,16.85
2023-06-10T04:40:13.267Z,16.92
2023-06-10T04:42:43.168Z,16.99
2023-06-10T04:45:12.005Z,17.05
2023-06-10T04:47:41.133Z,17.13
2023-06-10T04:50:09.842Z,17.17
2023-06-10T04:52:37.669Z,17.22
2023-06-10T04:55:07.244Z,17.23
2023-06-10T04:57:35.402Z,17.25
2023-06-10T05:00:07.060Z,17.29
2023-06-10T05:02:34.840Z,17.33
2023-06-10T05:05:02.664Z,17.36
2023-06-10T05:07:30.494Z,17.38
2023-06-10T05:09:58.226Z,17.47
2023-06-10T05:12:26.056Z,17.51
2023-06-10T05:14:53.850Z,17.55
2023-06-10T05:17:23.017Z,17.59
2023-06-10T05:19:51.009Z,17.66
2023-06-10T05:22:19.084Z,17.70
2023-06-10T05:24:46.938Z,17.78
2023-06-10T05:27:14.716Z,17.76
2023-06-10T05:29:42.482Z,17.82
2023-06-10T05:32:11.018Z,17.90
2023-06-10T05:34:40.183Z,17.92
2023-06-10T05:37:07.984Z,17.97
2023-06-10T05:39:38.540Z,18.07
2023-06-10T05:42:07.665Z,18.10
2023-06-10T05:44:36.042Z,18.16
2023-06-10T05:47:03.943Z,18.20
2023-06-10T05:49:31.943Z,18.26
2023-06-10T05:52:01.238Z,18.31
2023-06-10T05:54:30.281Z,18.32
2023-06-10T05:56:58.655Z,18.40
2023-06-10T05:59:26.472Z,18.47
2023-06-10T06:01:54.363Z,18.50
2023-06-10T06:04:22.222Z,18.58
2023-06-10T06:06:50.142Z,18.63
2023-06-10T06:09:19.298Z,18.67
2023-06-10T06:11:47.192Z,18.69
2023-06-10T06:14:15.032Z,18.77
2023-06-10T06:16:42.814Z,18.78
2023-06-10T06:19:12.194Z,18.85
2023-06-10T06:21:40.007Z,18.88
2023-06-10T06:24:08.828Z,18.94
2023-06-10T06:26:38.073Z,19.02
2023-06-10T06:29:05.882Z,19.11
2023-06-10T06:31:33.734Z,19.17
2023-06-10T06:34:01.648Z,19.21
2023-06-10T06:36:29.471Z,19.28
2023-06-10T06:38:58.374Z,19.38
2023-06-10T06:41:26.723Z,19.44
2023-06-10T06:43:56.016Z,19.49
2023-06-10T06:46:31.832Z,19.52
2023-06-10T06:48:59.780Z,19.56
2023-06-10T06:51:27.633Z,19.60
2023-06-10T06:53:59.728Z,19.68
2023-06-10T06:56:28.164Z,19.79
2023-06-10T06:58:58.322Z,19.87
2023-06-10T07:01:26.395Z,19.95
2023-06-10T07:03:54.318Z,20.02
2023-06-10T07:06:22.149Z,20.09
2023-06-10T07:08:52.631Z,20.15
2023-06-10T07:11:20.471Z,20.20
2023-06-10T07:13:48.445Z,20.29
2023-06-10T07:16:17.590Z,20.35
2023-06-10T07:18:45.593Z,20.44
2023-06-10T07:21:13.876Z,20.52
2023-06-10T07:23:44.316Z,20.59
2023-06-10T07:26:12.178Z,20.59
2023-06-10T07:28:40.125Z,20.64
2023-06-10T07:31:09.176Z,20.71
2023-06-10T07:33:40.126Z,20.77
2023-06-10T07:36:08.352Z,20.86
2023-06-10T07:38:36.359Z,20.95
2023-06-10T07:41:04.168Z,21.03
2023-06-10T07:43:32.060Z,21.09
2023-06-10T07:46:00.550Z,21.13
2023-06-10T07:48:28.464Z,21.24
2023-06-10T07:50:57.588Z,21.30
2023-06-10T07:53:25.415Z,21.40
2023-06-10T07:55:53.141Z,21.51
2023-06-10T07:58:21.022Z,21.62
2023-06-10T08:00:49.029Z,21.75
2023-06-10T08:03:16.940Z,21.84
2023-06-10T08:05:45.035Z,21.87
2023-06-10T08:08:15.160Z,21.98
2023-06-10T08:10:42.936Z,22.05
2023-06-10T08:13:11.021Z,22.13
2023-06-10T08:15:38.907Z,22.24
2023-06-10T08:18:06.797Z,22.34
2023-06-10T08:20:34.695Z,22.50
2023-06-10T08:23:02.539Z,22.53
2023-06-10T08:25:31.701Z,22.60
2023-06-10T08:27:59.551Z,22.72
2023-06-10T08:30:27.393Z,22.82
2023-06-10T08:32:55.229Z,23.01
2023-06-10T08:35:23.042Z,23.19
2023-06-10T08:37:51.106Z,23.27
2023-06-10T08:40:19.070Z,23.36
2023-06-10T08:42:55.500Z,23.43
2023-06-10T08:45:25.612Z,23.53
2023-06-10T08:47:55.985Z,23.73
2023-06-10T08:50:24.041Z,23.78
2023-06-10T08:52:56.337Z,23.91
2023-06-10T08:55:33.717Z,23.92
2023-06-10T08:58:03.332Z,24.07
2023-06-10T09:00:33.638Z,24.30
2023-06-10T09:03:04.954Z,24.60
2023-06-10T09:05:35.798Z,24.96
2023-06-10T09:08:04.259Z,25.06
2023-06-10T09:10:32.183Z,25.17
2023-06-10T09:13:00.013Z,25.04
2023-06-10T09:15:29.538Z,24.75
2023-06-10T09:17:57.481Z,24.70
2023-06-10T09:20:25.372Z,24.76
2023-06-10T09:22:53.386Z,24.67
2023-06-10T09:25:21.144Z,24.79
2023-06-10T09:27:51.973Z,24.67
2023-06-10T09:30:28.230Z,24.46
2023-06-10T09:32:58.714Z,24.35
2023-06-10T09:35:27.762Z,24.62
2023-06-10T09:37:56.873Z,24.98
2023-06-10T09:40:25.255Z,24.91
2023-06-10T09:42:56.056Z,24.84
2023-06-10T09:45:25.011Z,24.71
2023-06-10T09:47:54.748Z,24.47
2023-06-10T09:50:24.818Z,24.99
2023-06-10T09:52:53.062Z,24.86
2023-06-10T09:55:20.982Z,24.18
2023-06-10T09:57:51.664Z,24.36
2023-06-10T10:00:20.239Z,24.74
2023-06-10T10:02:50.620Z,25.07
2023-06-10T10:05:20.651Z,25.58
2023-06-10T10:07:50.164Z,25.93
2023-06-10T10:10:19.879Z,25.51
2023-06-10T10:12:49.267Z,25.34
2023-06-10T10:15:19.326Z,25.28
2023-06-10T10:17:51.570Z,25.25
2023-06-10T10:20:24.746Z,25.57
2023-06-10T10:22:58.420Z,25.99
2023-06-10T10:25:30.734Z,26.44
2023-06-10T10:28:04.459Z,26.91
2023-06-10T10:30:37.686Z,27.68
2023-06-10T10:33:10.879Z,28.33
2023-06-10T10:35:40.068Z,28.52
2023-06-10T10:38:11.149Z,28.29
2023-06-10T10:40:40.205Z,27.67
2023-06-10T10:43:08.814Z,26.64
2023-06-10T10:45:37.088Z,26.62
2023-06-10T10:48:12.574Z,27.03
2023-06-10T10:50:41.522Z,26.91
2023-06-10T10:53:10.787Z,26.77
2023-06-10T10:55:38.835Z,26.44
2023-06-10T10:58:08.402Z,26.43
2023-06-10T11:00:37.310Z,26.88
2023-06-10T11:03:11.524Z,27.62
2023-06-10T11:05:42.211Z,28.03
2023-06-10T11:08:11.683Z,28.54
2023-06-10T11:10:40.705Z,28.77
2023-06-10T11:13:10.198Z,29.48
2023-06-10T11:15:44.958Z,29.74
2023-06-10T11:18:15.269Z,29.05
2023-06-10T11:21:02.106Z,28.89
2023-06-10T11:23:41.667Z,28.95
2023-06-10T11:26:32.759Z,29.70
2023-06-10T11:29:11.294Z,29.84
2023-06-10T11:31:44.413Z,29.97
2023-06-10T11:34:12.700Z,30.17
2023-06-10T11:36:43.517Z,29.95
2023-06-10T11:39:13.496Z,29.89
2023-06-10T11:41:41.978Z,29.59
2023-06-10T11:44:11.476Z,29.16
2023-06-10T11:46:39.732Z,28.51
2023-06-10T11:49:08.275Z,28.13
2023-06-10T11:51:37.924Z,28.03
2023-06-10T11:54:06.098Z,27.97
2023-06-10T11:56:35.525Z,27.91
2023-06-10T11:59:06.676Z,28.08
2023-06-10T12:01:38.352Z,28.77
2023-06-10T12:04:09.494Z,29.46
2023-06-10T12:06:41.996Z,29.39
2023-06-10T12:09:24.421Z,30.29
2023-06-10T12:11:59.009Z,30.52
2023-06-10T12:15:07.269Z,29.60
2023-06-10T12:17:40.253Z,29.28
2023-06-10T12:20:10.076Z,29.16
2023-06-10T12:22:38.924Z,29.12
2023-06-10T12:25:09.180Z,29.06
2023-06-10T12:27:40.276Z,29.05
2023-06-10T12:30:09.079Z,28.96
2023-06-10T12:32:38.370Z,29.27
2023-06-10T12:35:08.089Z,29.36
2023-06-10T12:37:38.611Z,29.35
2023-06-10T12:40:09.775Z,29.09
2023-06-10T12:42:39.877Z,28.93
2023-06-10T12:45:11.168Z,29.63
2023-06-10T12:47:40.623Z,30.42
2023-06-10T12:50:10.004Z,30.87
2023-06-10T12:52:38.096Z,31.26
2023-06-10T12:55:07.534Z,31.53
2023-06-10T12:57:35.853Z,31.77
2023-06-10T13:00:09.617Z,32.20
2023-06-10T13:02:37.463Z,32.52
2023-06-10T13:05:05.682Z,32.64
2023-06-10T13:07:33.904Z,32.82
2023-06-10T13:10:02.273Z,33.06
2023-06-10T13:12:42.303Z,32.08
2023-06-10T13:15:16.809Z,31.88
2023-06-10T13:17:44.852Z,31.88
2023-06-10T13:20:12.894Z,32.15
2023-06-10T13:22:40.768Z,31.10
2023-06-10T13:25:09.740Z,31.58
2023-06-10T13:27:39.847Z,31.77
2023-06-10T13:30:09.772Z,32.12
2023-06-10T13:32:39.169Z,32.55
2023-06-10T13:35:08.686Z,32.80
2023-06-10T13:37:37.368Z,32.63
2023-06-10T13:40:06.349Z,32.79
2023-06-10T13:42:34.661Z,32.50
2023-06-10T13:45:02.411Z,32.19
2023-06-10T13:47:35.109Z,31.90
2023-06-10T13:50:04.478Z,31.77
2023-06-10T13:52:32.313Z,31.53
2023-06-10T13:55:00.080Z,30.01
2023-06-10T13:57:27.918Z,30.53
2023-06-10T13:59:57.116Z,30.85
2023-06-10T14:02:25.035Z,30.95
2023-06-10T14:04:53.237Z,31.24
2023-06-10T14:07:22.420Z,31.40
2023-06-10T14:09:52.590Z,31.58
2023-06-10T14:12:20.454Z,31.42
2023-06-10T14:14:48.509Z,31.41
2023-06-10T14:17:16.470Z,31.43
2023-06-10T14:19:44.451Z,31.38
2023-06-10T14:22:12.253Z,31.26
2023-06-10T14:24:41.437Z,31.05
2023-06-10T14:27:09.354Z,30.78
2023-06-10T14:29:37.161Z,30.32
2023-06-10T14:32:09.130Z,29.83
2023-06-10T14:34:37.569Z,29.51
2023-06-10T14:37:08.413Z,29.12
2023-06-10T14:39:36.385Z,28.77
2023-06-10T14:42:06.800Z,28.57
2023-06-10T14:44:34.783Z,28.45
2023-06-10T14:47:02.754Z,28.37
2023-06-10T14:49:30.656Z,28.20
2023-06-10T14:51:58.434Z,27.92
2023-06-10T14:54:26.244Z,28.06
2023-06-10T14:56:56.667Z,28.07
2023-06-10T14:59:25.796Z,28.10
2023-06-10T15:01:54.348Z,28.00
2023-06-10T15:04:24.484Z,28.12
2023-06-10T15:06:52.930Z,28.35
2023-06-10T15:09:21.019Z,28.31
2023-06-10T15:11:49.352Z,27.83
2023-06-10T15:14:17.214Z,27.91
2023-06-10T15:16:46.422Z,27.82
2023-06-10T15:19:14.300Z,27.90
2023-06-10T15:21:42.167Z,27.99
2023-06-10T15:24:10.622Z,28.08
2023-06-10T15:26:38.675Z,28.20
2023-06-10T15:29:07.283Z,28.34
2023-06-10T15:31:35.465Z,28.53
2023-06-10T15:34:05.816Z,28.89
2023-06-10T15:36:33.640Z,29.34
2023-06-10T15:39:04.060Z,29.66
2023-06-10T15:41:31.843Z,29.64
2023-06-10T15:44:00.784Z,29.48
2023-06-10T15:46:29.289Z,29.27
2023-06-10T15:48:57.254Z,29.22
2023-06-10T15:51:26.537Z,29.19
2023-06-10T15:53:54.391Z,29.09
2023-06-10T15:56:23.674Z,29.20
2023-06-10T15:58:51.578Z,29.17
2023-06-10T16:01:19.485Z,29.30
2023-06-10T16:03:47.382Z,29.35
2023-06-10T16:06:16.495Z,29.43
2023-06-10T16:08:46.508Z,29.78
2023-06-10T16:11:14.347Z,30.47
2023-06-10T16:13:42.479Z,30.94
2023-06-10T16:16:10.322Z,31.72
2023-06-10T16:18:38.173Z,31.81
2023-06-10T16:21:06.522Z,32.07
2023-06-10T16:23:34.446Z,32.15
2023-06-10T16:26:04.188Z,31.98
2023-06-10T16:28:32.163Z,31.25
2023-06-10T16:31:00.032Z,30.52
2023-06-10T16:33:27.909Z,30.54
2023-06-10T16:35:55.759Z,30.11
2023-06-10T16:38:24.116Z,29.70
2023-06-10T16:40:51.994Z,29.23
2023-06-10T16:43:21.293Z,28.83
2023-06-10T16:45:49.161Z,28.64
2023-06-10T16:48:16.919Z,28.04
2023-06-10T16:50:44.704Z,27.56
2023-06-10T16:53:12.515Z,27.07
2023-06-10T16:55:42.354Z,27.14
2023-06-10T16:58:10.147Z,27.57
2023-06-10T17:00:39.524Z,28.66
2023-06-10T17:03:09.142Z,29.31
2023-06-10T17:05:37.151Z,29.35
2023-06-10T17:08:05.365Z,29.53
2023-06-10T17:10:33.195Z,29.90
2023-06-10T17:13:01.005Z,30.43
2023-06-10T17:15:29.036Z,31.22
2023-06-10T17:17:59.347Z,32.22
2023-06-10T17:20:28.034Z,33.57
2023-06-10T17:22:56.119Z,34.12
2023-06-10T17:25:24.597Z,33.32
2023-06-10T17:27:52.481Z,32.56
2023-06-10T17:30:20.358Z,33.08
2023-06-10T17:32:48.234Z,33.15
2023-06-10T17:35:17.536Z,32.00
2023-06-10T17:37:45.334Z,30.84
2023-06-10T17:40:14.499Z,30.17
2023-06-10T17:42:42.365Z,29.65
2023-06-10T17:45:11.202Z,28.92
2023-06-10T17:47:39.452Z,28.39
2023-06-10T17:50:08.175Z,27.92
2023-06-10T17:52:37.406Z,27.42
2023-06-10T17:55:05.800Z,26.95
2023-06-10T17:57:33.806Z,26.48
2023-06-10T18:00:01.672Z,26.30
2023-06-10T18:02:29.555Z,25.97
2023-06-10T18:04:57.345Z,25.68
2023-06-10T18:07:25.204Z,25.43
2023-06-10T18:09:54.433Z,25.23
2023-06-10T18:12:22.377Z,25.06
2023-06-10T18:14:50.375Z,24.89
2023-06-10T18:17:18.162Z,24.69
2023-06-10T18:19:46.059Z,24.60
2023-06-10T18:22:14.104Z,24.50
2023-06-10T18:24:42.013Z,24.37
2023-06-10T18:27:13.380Z,24.33
2023-06-10T18:29:42.658Z,24.29
2023-06-10T18:32:11.331Z,24.11
2023-06-10T18:34:39.329Z,24.09
2023-06-10T18:37:25.794Z,24.08
2023-06-10T18:39:57.142Z,24.01
2023-06-10T18:42:26.701Z,23.90
2023-06-10T18:44:54.471Z,23.74
2023-06-10T18:47:22.381Z,23.64
2023-06-10T18:49:50.312Z,23.59
2023-06-10T18:52:18.128Z,23.49
2023-06-10T18:54:45.920Z,23.40
2023-06-10T18:57:14.447Z,23.34
2023-06-10T18:59:44.218Z,23.29
2023-06-10T19:02:12.490Z,23.17
2023-06-10T19:04:40.710Z,23.03
2023-06-10T19:07:08.517Z,22.94
2023-06-10T19:09:36.264Z,22.84
2023-06-10T19:12:04.298Z,22.78
2023-06-10T19:14:32.171Z,22.73
2023-06-10T19:17:01.332Z,22.64
2023-06-10T19:19:29.240Z,22.60
2023-06-10T19:21:58.419Z,22.54
2023-06-10T19:24:26.395Z,22.51
2023-06-10T19:26:54.447Z,22.52
2023-06-10T19:29:22.342Z,22.46
2023-06-10T19:31:50.442Z,22.42
2023-06-10T19:34:22.558Z,22.43
2023-06-10T19:36:50.478Z,22.31
2023-06-10T19:39:18.539Z,22.25
2023-06-10T19:41:46.502Z,22.19
2023-06-10T19:44:14.393Z,22.10
2023-06-10T19:46:42.324Z,22.04
2023-06-10T19:49:10.290Z,21.96
2023-06-10T19:51:39.430Z,21.88
2023-06-10T19:54:07.248Z,21.81
2023-06-10T19:56:35.085Z,21.72
2023-06-10T19:59:03.063Z,21.64
2023-06-10T20:01:31.124Z,21.56
2023-06-10T20:03:59.126Z,21.46
2023-06-10T20:06:27.062Z,21.35
2023-06-10T20:08:56.389Z,21.26
2023-06-10T20:11:24.308Z,21.24
2023-06-10T20:13:52.172Z,21.16
2023-06-10T20:16:20.086Z,21.11
2023-06-10T20:18:51.746Z,21.04
2023-06-10T20:21:20.788Z,20.99
2023-06-10T20:23:50.648Z,20.93
2023-06-10T20:26:20.070Z,20.89
2023-06-10T20:28:48.554Z,20.87
2023-06-10T20:31:16.433Z,20.85
2023-06-10T20:33:44.325Z,20.76
2023-06-10T20:36:12.150Z,20.73
2023-06-10T20:38:39.953Z,20.72
2023-06-10T20:41:07.821Z,20.70
2023-06-10T20:43:37.005Z,20.68
2023-06-10T20:46:06.253Z,20.67
2023-06-10T20:48:34.210Z,20.63
2023-06-10T20:51:01.973Z,20.61
2023-06-10T20:53:30.007Z,20.56
2023-06-10T20:55:59.284Z,20.52
2023-06-10T20:58:27.220Z,20.51
2023-06-10T21:00:56.500Z,20.50
2023-06-10T21:03:24.822Z,20.48
2023-06-10T21:05:52.727Z,20.43
2023-06-10T21:08:20.767Z,20.38
2023-06-10T21:10:48.544Z,20.31
2023-06-10T21:13:16.546Z,20.32
2023-06-10T21:15:45.131Z,20.27
2023-06-10T21:18:14.504Z,20.25
2023-06-10T21:20:43.251Z,20.22
2023-06-10T21:23:11.497Z,20.19
2023-06-10T21:25:39.430Z,20.13
2023-06-10T21:28:07.298Z,20.12
2023-06-10T21:30:35.019Z,20.07
2023-06-10T21:33:02.829Z,20.04
2023-06-10T21:35:32.252Z,20.04
2023-06-10T21:38:00.064Z,20.00
2023-06-10T21:40:28.169Z,19.97
2023-06-10T21:42:55.935Z,19.95
2023-06-10T21:45:23.771Z,19.94
2023-06-10T21:47:51.601Z,19.91
2023-06-10T21:50:19.409Z,19.90
2023-06-10T21:52:48.570Z,19.84
2023-06-10T21:55:16.698Z,19.81
2023-06-10T21:57:44.472Z,19.78
2023-06-10T22:00:14.398Z,19.72
2023-06-10T22:02:43.101Z,19.67
2023-06-10T22:05:11.140Z,19.64
2023-06-10T22:07:39.281Z,19.59
2023-06-10T22:10:08.981Z,19.56
2023-06-10T22:12:36.826Z,19.51
2023-06-10T22:15:05.393Z,19.46
2023-06-10T22:17:33.223Z,19.43
2023-06-10T22:20:01.176Z,19.38
2023-06-10T22:22:28.946Z,19.33
2023-06-10T22:24:57.270Z,19.31
2023-06-10T22:27:26.661Z,19.29
2023-06-10T22:29:54.505Z,19.24
2023-06-10T22:32:22.391Z,19.21
2023-06-10T22:34:50.263Z,19.16
2023-06-10T22:37:18.173Z,19.13
2023-06-10T22:39:45.976Z,19.07
2023-06-10T22:42:13.872Z,19.04
2023-06-10T22:44:43.981Z,18.98
2023-06-10T22:47:13.150Z,18.94
2023-06-10T22:49:41.691Z,18.89
2023-06-10T22:52:09.884Z,18.84
2023-06-10T22:54:38.325Z,18.83
2023-06-10T22:57:06.597Z,18.82
2023-06-10T22:59:34.391Z,18.79
2023-06-10T23:02:03.652Z,18.71
2023-06-10T23:04:31.575Z,18.70
2023-06-10T23:06:59.361Z,18.70
2023-06-10T23:09:27.167Z,18.67
2023-06-10T23:11:55.000Z,18.64
2023-06-10T23:14:23.243Z,18.63
2023-06-10T23:16:52.499Z,18.59
2023-06-10T23:19:22.746Z,18.56
2023-06-10T23:21:54.403Z,18.50
2023-06-10T23:24:30.433Z,18.50
2023-06-10T23:27:00.191Z,18.50
2023-06-10T23:29:28.605Z,18.46
2023-06-10T23:31:57.220Z,18.46
2023-06-10T23:34:26.484Z,18.43
2023-06-10T23:36:54.894Z,18.39
2023-06-10T23:39:23.430Z,18.35
2023-06-10T23:41:51.467Z,18.35
2023-06-10T23:44:19.309Z,18.33
2023-06-10T23:46:47.108Z,18.32
2023-06-10T23:49:14.949Z,18.28
2023-06-10T23:51:44.052Z,18.25
2023-06-10T23:54:13.678Z,18.18
2023-06-10T23:56:41.618Z,18.17
2023-06-10T23:59:09.521Z,18.16
